createdAt,value
2023-01-29T00:02:00.621Z,5.40
2023-01-29T00:04:28.715Z,5.40
2023-01-29T00:06:58.158Z,5.41
2023-01-29T00:09:35.388Z,5.41
2023-01-29T00:12:03.541Z,5.40
2023-01-29T00:14:31.589Z,5.40
2023-01-29T00:16:59.760Z,5.38
2023-01-29T00:19:27.842Z,5.37
2023-01-29T00:21:57.242Z,5.34
2023-01-29T00:24:25.398Z,5.32
2023-01-29T00:26:53.468Z,5.32
2023-01-29T00:29:22.087Z,5.31
2023-01-29T00:31:50.274Z,5.30
2023-01-29T00:34:18.583Z,5.30
2023-01-29T00:36:46.740Z,5.30
2023-01-29T00:39:16.133Z,5.31
2023-01-29T00:42:01.713Z,5.31
2023-01-29T00:44:47.225Z,5.31
2023-01-29T00:47:34.191Z,5.29
2023-01-29T00:50:02.733Z,5.30
2023-01-29T00:52:30.941Z,5.29
2023-01-29T00:55:01.956Z,5.30
2023-01-29T00:57:32.090Z,5.29
2023-01-29T01:00:00.408Z,5.29
2023-01-29T01:02:46.589Z,5.27
2023-01-29T01:05:18.932Z,5.26
2023-01-29T01:07:48.099Z,5.24
2023-01-29T01:10:22.257Z,5.24
2023-01-29T01:12:55.238Z,5.24
2023-01-29T01:15:24.587Z,5.23
2023-01-29T01:17:56.180Z,5.20
2023-01-29T01:20:24.715Z,5.18
2023-01-29T01:22:54.397Z,5.15
2023-01-29T01:25:24.322Z,5.14
2023-01-29T01:27:54.180Z,5.13
2023-01-29T01:30:22.468Z,5.10
2023-01-29T01:32:50.568Z,5.07
2023-01-29T01:35:18.827Z,4.99
2023-01-29T01:37:47.024Z,4.94
2023-01-29T01:40:20.954Z,4.87
2023-01-29T01:42:51.443Z,4.83
2023-01-29T01:45:22.931Z,4.76
2023-01-29T01:47:54.951Z,4.65
2023-01-29T01:50:26.419Z,4.55
2023-01-29T01:52:59.055Z,4.50
2023-01-29T01:55:30.982Z,4.52
2023-01-29T01:58:07.525Z,4.57
2023-01-29T02:00:35.563Z,4.61
2023-01-29T02:03:23.021Z,4.63
2023-01-29T02:06:09.514Z,4.64
2023-01-29T02:09:01.632Z,4.70
2023-01-29T02:11:29.702Z,4.77
2023-01-29T02:13:59.389Z,4.79
2023-01-29T02:16:27.657Z,4.85
2023-01-29T02:18:55.713Z,4.87
2023-01-29T02:21:58.693Z,4.88
2023-01-29T02:25:10.552Z,4.92
2023-01-29T02:28:11.974Z,4.89
2023-01-29T02:30:46.758Z,4.85
2023-01-29T02:33:22.599Z,4.78
2023-01-29T02:36:01.292Z,4.70
2023-01-29T02:38:36.379Z,4.57
2023-01-29T02:41:12.825Z,4.49
2023-01-29T02:43:48.264Z,4.54
2023-01-29T02:46:31.258Z,4.62
2023-01-29T02:49:03.232Z,4.67
2023-01-29T02:51:39.855Z,4.68
2023-01-29T02:54:11.861Z,4.69
2023-01-29T02:56:46.771Z,4.72
2023-01-29T02:59:22.440Z,4.74
2023-01-29T03:01:54.844Z,4.76
2023-01-29T03:04:27.784Z,4.78
2023-01-29T03:07:01.975Z,4.79
2023-01-29T03:09:35.956Z,4.82
2023-01-29T03:12:31.295Z,4.85
2023-01-29T03:15:12.516Z,4.87
2023-01-29T03:17:46.654Z,4.87
2023-01-29T03:20:19.015Z,4.89
2023-01-29T03:22:52.236Z,4.89
2023-01-29T03:25:42.942Z,4.90
2023-01-29T03:28:31.113Z,4.89
2023-01-29T03:31:23.331Z,4.89
2023-01-29T03:33:53.891Z,4.86
2023-01-29T03:36:28.045Z,4.85
2023-01-29T03:38:56.069Z,4.84
2023-01-29T03:41:30.700Z,4.84
2023-01-29T03:44:11.415Z,4.84
2023-01-29T03:46:47.829Z,4.84
2023-01-29T03:49:23.171Z,4.87
2023-01-29T03:51:57.705Z,4.86
2023-01-29T03:54:32.658Z,4.86
2023-01-29T03:57:05.641Z,4.83
2023-01-29T03:59:40.868Z,4.77
2023-01-29T04:02:15.577Z,4.69
2023-01-29T04:04:46.431Z,4.62
2023-01-29T04:07:17.534Z,4.54
2023-01-29T04:09:49.750Z,4.39
2023-01-29T04:12:24.698Z,4.22
2023-01-29T04:14:55.511Z,4.12
2023-01-29T04:17:33.040Z,4.00
2023-01-29T04:20:02.709Z,3.90
2023-01-29T04:22:34.287Z,3.82
2023-01-29T04:25:08.670Z,3.77
2023-01-29T04:27:46.424Z,3.71
2023-01-29T04:30:27.790Z,3.65
2023-01-29T04:33:05.571Z,3.59
2023-01-29T04:35:42.661Z,3.54
2023-01-29T04:38:24.962Z,3.46
2023-01-29T04:41:04.225Z,3.43
2023-01-29T04:43:46.357Z,3.40
2023-01-29T04:46:19.627Z,3.37
2023-01-29T04:49:02.828Z,3.33
2023-01-29T04:51:39.168Z,3.30
2023-01-29T04:54:12.576Z,3.29
2023-01-29T04:56:48.294Z,3.28
2023-01-29T04:59:22.818Z,3.28
2023-01-29T05:01:51.129Z,3.27
2023-01-29T05:04:22.830Z,3.30
2023-01-29T05:06:51.563Z,3.28
2023-01-29T05:09:20.995Z,3.26
2023-01-29T05:11:51.301Z,3.27
2023-01-29T05:14:21.051Z,3.26
2023-01-29T05:16:52.817Z,3.25
2023-01-29T05:19:22.201Z,3.25
2023-01-29T05:21:51.498Z,3.25
2023-01-29T05:24:22.090Z,3.23
2023-01-29T05:27:11.735Z,3.24
2023-01-29T05:29:41.377Z,3.22
2023-01-29T05:32:09.420Z,3.23
2023-01-29T05:34:39.216Z,3.25
2023-01-29T05:37:07.279Z,3.25
2023-01-29T05:39:35.300Z,3.30
2023-01-29T05:42:03.689Z,3.28
2023-01-29T05:44:31.710Z,3.27
2023-01-29T05:46:59.686Z,3.30
2023-01-29T05:49:27.679Z,3.29
2023-01-29T05:51:57.064Z,3.28
2023-01-29T05:54:25.097Z,3.32
2023-01-29T05:56:53.132Z,3.36
2023-01-29T05:59:21.487Z,3.43
2023-01-29T06:01:49.555Z,3.52
2023-01-29T06:04:17.598Z,3.68
2023-01-29T06:06:45.671Z,3.80
2023-01-29T06:09:15.224Z,3.87
2023-01-29T06:11:43.201Z,3.96
2023-01-29T06:14:11.353Z,4.03
2023-01-29T06:16:39.428Z,4.04
2023-01-29T06:19:07.449Z,4.09
2023-01-29T06:21:35.429Z,4.16
2023-01-29T06:24:03.543Z,4.17
2023-01-29T06:26:32.958Z,4.16
2023-01-29T06:29:00.982Z,4.18
2023-01-29T06:31:39.689Z,4.14
2023-01-29T06:34:08.227Z,4.14
2023-01-29T06:36:36.475Z,4.17
2023-01-29T06:39:04.986Z,4.15
2023-01-29T06:41:34.654Z,4.16
2023-01-29T06:44:02.729Z,4.17
2023-01-29T06:46:30.788Z,4.13
2023-01-29T06:49:00.427Z,4.11
2023-01-29T06:51:28.558Z,4.12
2023-01-29T06:53:56.582Z,4.12
2023-01-29T06:56:25.311Z,4.11
2023-01-29T06:58:54.739Z,4.12
2023-01-29T07:01:35.184Z,4.11
2023-01-29T07:04:04.444Z,4.13
2023-01-29T07:06:32.790Z,4.06
2023-01-29T07:09:01.130Z,4.08
2023-01-29T07:11:29.161Z,4.12
2023-01-29T07:13:58.646Z,4.14
2023-01-29T07:16:27.294Z,4.15
2023-01-29T07:18:55.385Z,4.19
2023-01-29T07:21:23.522Z,4.17
2023-01-29T07:23:51.601Z,4.15
2023-01-29T07:26:19.611Z,4.15
2023-01-29T07:28:47.750Z,4.19
2023-01-29T07:31:17.307Z,4.23
2023-01-29T07:33:45.945Z,4.26
2023-01-29T07:36:14.826Z,4.28
2023-01-29T07:38:42.858Z,4.23
2023-01-29T07:41:12.692Z,4.22
2023-01-29T07:43:40.808Z,4.23
2023-01-29T07:46:09.661Z,4.25
2023-01-29T07:48:39.220Z,4.26
2023-01-29T07:51:07.781Z,4.23
2023-01-29T07:53:35.937Z,4.19
2023-01-29T07:56:04.436Z,4.14
2023-01-29T07:58:35.648Z,4.13
2023-01-29T08:01:06.953Z,4.16
2023-01-29T08:03:35.014Z,4.11
2023-01-29T08:06:04.954Z,4.05
2023-01-29T08:08:33.041Z,4.01
2023-01-29T08:11:03.046Z,3.97
2023-01-29T08:13:31.113Z,3.97
2023-01-29T08:16:02.150Z,3.97
2023-01-29T08:18:31.641Z,4.06
2023-01-29T08:21:04.529Z,4.12
2023-01-29T08:23:32.538Z,4.24
2023-01-29T08:26:00.648Z,4.37
2023-01-29T08:28:30.599Z,4.47
2023-01-29T08:30:58.762Z,4.54
2023-01-29T08:33:38.363Z,4.60
2023-01-29T08:36:09.422Z,4.68
2023-01-29T08:38:37.700Z,4.76
2023-01-29T08:41:05.948Z,4.82
2023-01-29T08:43:35.324Z,4.88
2023-01-29T08:46:05.448Z,4.93
2023-01-29T08:48:33.502Z,5.00
2023-01-29T08:51:02.511Z,5.06
2023-01-29T08:53:32.058Z,5.11
2023-01-29T08:56:00.183Z,5.15
2023-01-29T08:58:28.297Z,5.18
2023-01-29T09:00:56.569Z,5.22
2023-01-29T09:03:24.649Z,5.24
2023-01-29T09:05:52.630Z,5.29
2023-01-29T09:08:20.642Z,5.33
2023-01-29T09:10:50.030Z,5.37
2023-01-29T09:13:18.068Z,5.42
2023-01-29T09:15:46.077Z,5.48
2023-01-29T09:18:14.040Z,5.54
2023-01-29T09:20:42.136Z,5.61
2023-01-29T09:23:11.409Z,5.72
2023-01-29T09:25:39.451Z,5.81
2023-01-29T09:28:08.944Z,5.92
2023-01-29T09:30:38.310Z,6.01
2023-01-29T09:33:06.692Z,6.05
2023-01-29T09:35:35.085Z,6.11
2023-01-29T09:38:03.108Z,6.16
2023-01-29T09:40:36.940Z,6.22
2023-01-29T09:43:14.059Z,6.32
2023-01-29T09:45:51.433Z,6.36
2023-01-29T09:48:22.216Z,6.40
2023-01-29T09:50:52.757Z,6.41
2023-01-29T09:53:26.397Z,6.44
2023-01-29T09:56:00.162Z,6.49
2023-01-29T09:58:33.720Z,6.59
2023-01-29T10:01:10.771Z,6.70
2023-01-29T10:04:03.844Z,6.72
2023-01-29T10:06:51.071Z,6.65
2023-01-29T10:09:49.200Z,6.68
2023-01-29T10:12:31.506Z,6.72
2023-01-29T10:15:10.725Z,6.76
2023-01-29T10:17:54.713Z,6.81
2023-01-29T10:20:50.189Z,6.91
2023-01-29T10:23:23.447Z,7.05
2023-01-29T10:25:51.495Z,7.18
2023-01-29T10:28:21.880Z,7.36
2023-01-29T10:30:55.706Z,7.53
2023-01-29T10:33:31.050Z,7.55
2023-01-29T10:36:08.478Z,7.65
2023-01-29T10:38:44.157Z,7.71
2023-01-29T10:41:46.320Z,7.71
2023-01-29T10:44:28.647Z,7.67
2023-01-29T10:47:19.666Z,7.68
2023-01-29T10:50:06.516Z,7.65
2023-01-29T10:52:45.896Z,7.67
2023-01-29T10:55:29.454Z,7.69
2023-01-29T10:58:05.381Z,7.66
2023-01-29T11:00:38.610Z,7.66
2023-01-29T11:03:27.096Z,7.67
2023-01-29T11:06:02.672Z,7.71
2023-01-29T11:08:36.298Z,7.64
2023-01-29T11:11:09.540Z,7.64
2023-01-29T11:13:43.986Z,7.58
2023-01-29T11:16:12.098Z,7.58
2023-01-29T11:18:58.714Z,7.64
2023-01-29T11:21:28.536Z,7.62
2023-01-29T11:24:08.523Z,7.64
2023-01-29T11:26:40.395Z,7.73
2023-01-29T11:29:32.788Z,7.70
2023-01-29T11:32:02.628Z,7.69
2023-01-29T11:34:32.353Z,7.68
2023-01-29T11:37:01.943Z,7.66
2023-01-29T11:39:33.754Z,7.64
2023-01-29T11:42:03.859Z,7.77
2023-01-29T11:44:33.231Z,8.16
2023-01-29T11:47:19.252Z,8.51
2023-01-29T11:49:51.617Z,8.55
2023-01-29T11:52:22.204Z,8.51
2023-01-29T11:54:54.659Z,8.44
2023-01-29T11:57:34.372Z,8.56
2023-01-29T12:00:06.696Z,8.79
2023-01-29T12:02:38.535Z,9.06
2023-01-29T12:05:17.556Z,9.25
2023-01-29T12:07:49.077Z,9.33
2023-01-29T12:10:36.682Z,9.39
2023-01-29T12:13:26.995Z,9.46
2023-01-29T12:16:13.963Z,9.49
2023-01-29T12:18:45.562Z,9.42
2023-01-29T12:21:20.241Z,9.38
2023-01-29T12:23:56.282Z,9.34
2023-01-29T12:26:31.136Z,9.26
2023-01-29T12:29:15.093Z,9.22
2023-01-29T12:31:50.490Z,9.28
2023-01-29T12:34:24.855Z,9.29
2023-01-29T12:37:00.638Z,9.35
2023-01-29T12:39:28.888Z,9.39
2023-01-29T12:42:03.564Z,9.44
2023-01-29T12:44:42.327Z,9.47
2023-01-29T12:47:20.358Z,9.53
2023-01-29T12:49:55.119Z,9.66
2023-01-29T12:52:31.881Z,9.73
2023-01-29T12:55:03.853Z,9.80
2023-01-29T12:57:40.626Z,9.89
2023-01-29T13:00:15.696Z,9.86
2023-01-29T13:02:51.089Z,9.89
2023-01-29T13:05:24.553Z,9.94
2023-01-29T13:07:59.416Z,9.84
2023-01-29T13:10:32.090Z,9.64
2023-01-29T13:13:05.187Z,9.52
2023-01-29T13:15:38.111Z,9.56
2023-01-29T13:18:32.249Z,9.63
2023-01-29T13:21:01.561Z,9.52
2023-01-29T13:23:36.142Z,9.46
2023-01-29T13:26:05.757Z,9.39
2023-01-29T13:28:34.064Z,9.38
2023-01-29T13:31:23.657Z,9.35
2023-01-29T13:34:00.854Z,9.40
2023-01-29T13:36:32.866Z,9.49
2023-01-29T13:39:07.176Z,9.70
2023-01-29T13:41:37.834Z,9.92
2023-01-29T13:44:09.368Z,10.13
2023-01-29T13:46:42.777Z,10.27
2023-01-29T13:49:27.958Z,10.41
2023-01-29T13:51:56.261Z,10.58
2023-01-29T13:54:29.186Z,10.46
2023-01-29T13:57:02.197Z,10.35
2023-01-29T13:59:52.037Z,10.23
2023-01-29T14:02:27.791Z,10.20
2023-01-29T14:05:28.836Z,10.18
2023-01-29T14:07:59.298Z,10.17
2023-01-29T14:10:30.103Z,10.30
2023-01-29T14:13:27.699Z,10.65
2023-01-29T14:16:25.546Z,10.95
2023-01-29T14:18:58.415Z,10.79
2023-01-29T14:21:32.754Z,10.60
2023-01-29T14:24:10.953Z,10.45
2023-01-29T14:26:49.850Z,10.34
2023-01-29T14:29:32.635Z,10.14
2023-01-29T14:32:17.824Z,9.99
2023-01-29T14:34:49.176Z,9.88
2023-01-29T14:37:23.681Z,9.86
2023-01-29T14:39:53.299Z,10.06
2023-01-29T14:42:27.004Z,10.30
2023-01-29T14:45:11.356Z,10.37
2023-01-29T14:47:59.718Z,10.40
2023-01-29T14:50:53.267Z,10.26
2023-01-29T14:53:26.652Z,10.17
2023-01-29T14:56:00.180Z,10.08
2023-01-29T14:58:38.060Z,10.02
2023-01-29T15:01:16.063Z,9.96
2023-01-29T15:03:50.056Z,9.98
2023-01-29T15:06:23.005Z,9.96
2023-01-29T15:08:56.904Z,9.99
2023-01-29T15:11:35.127Z,10.01
2023-01-29T15:14:24.970Z,10.01
2023-01-29T15:17:19.512Z,10.02
2023-01-29T15:19:49.301Z,10.01
2023-01-29T15:22:18.762Z,10.01
2023-01-29T15:24:49.336Z,10.04
2023-01-29T15:27:19.741Z,10.06
2023-01-29T15:29:55.737Z,10.11
2023-01-29T15:32:30.275Z,10.11
2023-01-29T15:35:00.432Z,10.18
2023-01-29T15:37:29.357Z,10.26
2023-01-29T15:39:58.369Z,10.30
2023-01-29T15:42:28.508Z,10.19
2023-01-29T15:44:58.006Z,10.17
2023-01-29T15:47:30.018Z,10.06
2023-01-29T15:49:58.789Z,10.03
2023-01-29T15:52:33.115Z,9.98
2023-01-29T15:55:05.953Z,9.98
2023-01-29T15:57:40.600Z,10.00
2023-01-29T16:00:23.539Z,10.07
2023-01-29T16:02:52.150Z,10.17
2023-01-29T16:05:23.226Z,10.21
2023-01-29T16:07:52.427Z,10.18
2023-01-29T16:10:22.420Z,10.09
2023-01-29T16:12:52.782Z,10.00
2023-01-29T16:15:54.571Z,9.99
2023-01-29T16:18:25.299Z,9.96
2023-01-29T16:20:54.728Z,9.90
2023-01-29T16:23:27.736Z,9.86
2023-01-29T16:25:57.825Z,9.83
2023-01-29T16:28:25.956Z,9.82
2023-01-29T16:31:01.870Z,9.85
2023-01-29T16:33:36.348Z,9.85
2023-01-29T16:36:06.221Z,9.87
2023-01-29T16:38:37.226Z,9.85
2023-01-29T16:41:09.517Z,9.85
2023-01-29T16:43:49.182Z,9.84
2023-01-29T16:46:22.635Z,9.82
2023-01-29T16:49:26.014Z,9.77
2023-01-29T16:51:54.732Z,9.73
2023-01-29T16:54:26.552Z,9.68
2023-01-29T16:56:59.924Z,9.56
2023-01-29T16:59:33.631Z,9.39
2023-01-29T17:02:04.124Z,9.25
2023-01-29T17:04:32.250Z,9.15
2023-01-29T17:07:02.541Z,9.08
2023-01-29T17:09:33.739Z,9.04
2023-01-29T17:12:06.517Z,9.06
2023-01-29T17:14:36.068Z,9.16
2023-01-29T17:17:07.871Z,9.25
2023-01-29T17:19:35.925Z,9.32
2023-01-29T17:22:10.599Z,9.37
2023-01-29T17:24:41.331Z,9.37
2023-01-29T17:27:27.397Z,9.34
2023-01-29T17:30:01.847Z,9.27
2023-01-29T17:32:43.550Z,9.12
2023-01-29T17:35:14.388Z,8.99
2023-01-29T17:37:42.575Z,8.88
2023-01-29T17:40:35.009Z,8.78
2023-01-29T17:43:03.100Z,8.74
2023-01-29T17:45:46.769Z,8.73
2023-01-29T17:48:20.277Z,8.70
2023-01-29T17:50:53.482Z,8.79
2023-01-29T17:53:44.328Z,8.90
2023-01-29T17:56:33.638Z,9.03
2023-01-29T17:59:02.103Z,9.11
2023-01-29T18:01:30.547Z,9.17
2023-01-29T18:04:03.311Z,9.20
2023-01-29T18:06:33.603Z,9.23
2023-01-29T18:09:01.754Z,9.26
2023-01-29T18:11:29.926Z,9.30
2023-01-29T18:14:03.603Z,9.31
2023-01-29T18:16:45.546Z,9.35
2023-01-29T18:19:27.663Z,9.37
2023-01-29T18:21:55.964Z,9.37
2023-01-29T18:24:26.613Z,9.39
2023-01-29T18:26:54.830Z,9.42
2023-01-29T18:29:23.103Z,9.47
2023-01-29T18:31:51.206Z,9.50
2023-01-29T18:34:39.531Z,9.53
2023-01-29T18:37:12.959Z,9.54
2023-01-29T18:39:47.029Z,9.59
2023-01-29T18:42:15.089Z,9.59
2023-01-29T18:44:56.837Z,9.60
2023-01-29T18:47:31.414Z,9.58
2023-01-29T18:50:00.995Z,9.59
2023-01-29T18:52:29.134Z,9.57
2023-01-29T18:55:03.357Z,9.53
2023-01-29T18:58:26.937Z,9.52
2023-01-29T19:00:20.303Z,9.50
2023-01-29T19:02:57.874Z,9.49
2023-01-29T19:05:38.933Z,9.49
2023-01-29T19:08:07.489Z,9.49
2023-01-29T19:10:41.742Z,9.47
2023-01-29T19:13:16.370Z,9.45
2023-01-29T19:15:45.199Z,9.41
2023-01-29T19:18:14.704Z,9.42
2023-01-29T19:20:51.246Z,9.42
2023-01-29T19:23:19.382Z,9.40
2023-01-29T19:25:54.345Z,9.39
2023-01-29T19:28:22.737Z,9.37
2023-01-29T19:30:50.948Z,9.34
2023-01-29T19:33:19.217Z,9.32
2023-01-29T19:35:50.959Z,9.30
2023-01-29T19:38:28.877Z,9.22
2023-01-29T19:41:00.844Z,9.13
2023-01-29T19:43:31.835Z,9.09
2023-01-29T19:46:03.014Z,9.02
2023-01-29T19:48:34.905Z,8.91
2023-01-29T19:51:08.968Z,8.83
2023-01-29T19:53:38.145Z,8.73
2023-01-29T19:56:14.224Z,8.65
2023-01-29T19:58:43.130Z,8.57
2023-01-29T20:01:16.038Z,8.50
2023-01-29T20:03:46.549Z,8.42
2023-01-29T20:06:17.790Z,8.34
2023-01-29T20:08:46.865Z,8.28
2023-01-29T20:11:15.832Z,8.20
2023-01-29T20:13:44.710Z,8.16
2023-01-29T20:16:13.091Z,8.10
2023-01-29T20:18:41.264Z,8.04
2023-01-29T20:21:11.923Z,8.05
2023-01-29T20:23:43.742Z,8.05
2023-01-29T20:26:15.029Z,8.02
2023-01-29T20:28:43.449Z,7.96
2023-01-29T20:31:11.789Z,7.96
2023-01-29T20:33:40.454Z,7.96
2023-01-29T20:36:11.555Z,7.91
2023-01-29T20:38:41.193Z,7.85
2023-01-29T20:41:10.811Z,7.78
2023-01-29T20:43:39.173Z,7.65
2023-01-29T20:46:07.832Z,7.57
2023-01-29T20:48:36.207Z,7.55
2023-01-29T20:51:09.909Z,7.50
2023-01-29T20:53:38.695Z,7.42
2023-01-29T20:56:09.193Z,7.34
2023-01-29T20:58:41.011Z,7.43
2023-01-29T21:01:10.260Z,7.48
2023-01-29T21:03:39.106Z,7.42
2023-01-29T21:06:08.600Z,7.41
2023-01-29T21:08:37.476Z,7.32
2023-01-29T21:11:06.654Z,7.21
2023-01-29T21:13:36.550Z,7.14
2023-01-29T21:16:05.102Z,7.08
2023-01-29T21:18:33.600Z,7.07
2023-01-29T21:21:01.645Z,7.01
2023-01-29T21:23:29.869Z,7.03
2023-01-29T21:26:03.627Z,7.08
2023-01-29T21:28:32.019Z,7.15
2023-01-29T21:31:10.298Z,7.13
2023-01-29T21:33:38.757Z,7.07
2023-01-29T21:36:08.499Z,6.95
2023-01-29T21:38:36.565Z,6.76
2023-01-29T21:41:07.306Z,6.63
2023-01-29T21:43:34.620Z,6.47
2023-01-29T21:46:05.193Z,6.36
2023-01-29T21:48:34.759Z,6.24
2023-01-29T21:51:02.965Z,6.13
2023-01-29T21:53:31.034Z,6.06
2023-01-29T21:56:01.077Z,6.01
2023-01-29T21:58:29.370Z,5.98
2023-01-29T22:01:18.122Z,5.93
2023-01-29T22:03:47.640Z,5.94
2023-01-29T22:06:15.923Z,6.02
2023-01-29T22:08:44.236Z,6.13
2023-01-29T22:11:12.639Z,6.24
2023-01-29T22:13:40.795Z,6.34
2023-01-29T22:16:09.478Z,6.39
2023-01-29T22:18:37.475Z,6.41
2023-01-29T22:21:07.119Z,6.36
2023-01-29T22:23:35.134Z,6.22
2023-01-29T22:26:07.171Z,6.09
2023-01-29T22:28:35.254Z,6.03
2023-01-29T22:31:03.631Z,5.95
2023-01-29T22:33:32.170Z,5.91
2023-01-29T22:36:00.842Z,5.88
2023-01-29T22:38:30.776Z,5.90
2023-01-29T22:41:01.454Z,5.92
2023-01-29T22:43:30.265Z,5.92
2023-01-29T22:45:58.687Z,5.90
2023-01-29T22:48:27.082Z,5.88
2023-01-29T22:51:09.547Z,5.87
2023-01-29T22:53:39.719Z,5.85
2023-01-29T22:56:08.392Z,5.78
2023-01-29T22:58:36.475Z,5.67
2023-01-29T23:01:04.966Z,5.55
2023-01-29T23:03:33.135Z,5.46
2023-01-29T23:06:01.305Z,5.41
2023-01-29T23:08:29.475Z,5.40
2023-01-29T23:11:14.211Z,5.33
2023-01-29T23:13:43.986Z,5.27
2023-01-29T23:16:12.235Z,5.18
2023-01-29T23:18:40.423Z,5.15
2023-01-29T23:21:08.760Z,5.10
2023-01-29T23:23:38.678Z,5.09
2023-01-29T23:26:26.427Z,5.10
2023-01-29T23:28:54.490Z,5.13
2023-01-29T23:31:22.691Z,5.24
2023-01-29T23:33:50.822Z,5.42
2023-01-29T23:36:19.240Z,5.54
2023-01-29T23:38:47.259Z,5.62
2023-01-29T23:41:16.666Z,5.71
2023-01-29T23:43:44.757Z,5.77
2023-01-29T23:46:12.885Z,5.80
2023-01-29T23:48:40.986Z,5.83
2023-01-29T23:51:09.021Z,5.79
2023-01-29T23:53:37.145Z,5.73
2023-01-29T23:56:06.534Z,5.57
2023-01-29T23:58:36.428Z,5.35
